Time;durP1;ratioP1;P1;durP2;ratioP2;P2;SDS_P1;SDS_P2;PMS_P1;PMS_P2;Temp;Humidity;BMP_temperature;BMP_pressure;BME280_temperature;BME280_humidity;BME280_pressure;Samples;Min_cycle;Max_cycle;Signal;HPM_P1;HPM_P2
2022/03/27 00:01:46;;;;;;;0.10;0.10;;;3.60;23.90;;;;;;5097212;28;20120;-77
2022/03/27 00:04:12;;;;;;;0.40;0.40;;;3.60;27.30;;;;;;5097728;28;20437;-78
2022/03/27 00:06:37;;;;;;;0.20;0.20;;;3.40;13.00;;;;;;5096879;28;20032;-77
2022/03/27 00:09:04;;;;;;;0.20;0.20;;;3.40;26.40;;;;;;5097625;28;20047;-77
2022/03/27 00:11:30;;;;;;;0.10;0.10;;;3.40;26.70;;;;;;5096851;28;20108;-76
2022/03/27 00:13:59;;;;;;;11.27;0.95;;;3.40;22.70;;;;;;5096983;28;20067;-77
2022/03/27 00:16:25;;;;;;;0.00;0.00;;;3.40;29.50;;;;;;5096253;28;20424;-77
2022/03/27 00:18:52;;;;;;;0.10;0.10;;;3.40;26.20;;;;;;5096605;28;20167;-76
2022/03/27 00:21:18;;;;;;;0.13;0.13;;;3.40;26.90;;;;;;5096684;28;20036;-77
2022/03/27 00:23:44;;;;;;;0.40;0.40;;;3.30;29.00;;;;;;5096489;28;20035;-77
2022/03/27 00:26:10;;;;;;;0.38;0.38;;;3.30;31.80;;;;;;5096476;28;20040;-77
2022/03/27 00:28:37;;;;;;;0.10;0.10;;;3.20;22.10;;;;;;5096411;28;20036;-77
2022/03/27 00:31:05;;;;;;;0.10;0.10;;;3.20;34.40;;;;;;5096336;28;20567;-77
2022/03/27 00:33:32;;;;;;;0.10;0.10;;;3.20;32.30;;;;;;5095989;28;20512;-77
2022/03/27 00:35:59;;;;;;;0.40;0.40;;;3.20;40.80;;;;;;5095820;28;20556;-77
2022/03/27 00:38:25;;;;;;;0.20;0.20;;;3.20;40.50;;;;;;5094924;28;20064;-77
2022/03/27 00:40:53;;;;;;;0.50;0.50;;;3.20;31.90;;;;;;5095684;28;20040;-76
2022/03/27 00:43:20;;;;;;;0.30;0.30;;;3.10;37.30;;;;;;5095813;28;20038;-77
2022/03/27 00:45:46;;;;;;;0.10;0.10;;;3.10;46.20;;;;;;5096036;28;20044;-78
2022/03/27 00:48:14;;;;;;;1.65;0.68;;;3.20;44.00;;;;;;5095756;28;20028;-77
2022/03/27 00:50:41;;;;;;;0.40;0.40;;;3.10;43.10;;;;;;5095971;28;20122;-77
2022/03/27 00:53:08;;;;;;;0.30;0.30;;;3.10;39.60;;;;;;5095677;28;20506;-77
2022/03/27 00:55:34;;;;;;;0.15;0.15;;;3.10;39.40;;;;;;5095894;28;20058;-77
2022/03/27 00:58:01;;;;;;;0.35;0.35;;;3.10;47.00;;;;;;5095564;28;20036;-77
2022/03/27 01:00:38;;;;;;;0.20;0.20;;;3.10;47.20;;;;;;5096058;28;20375;-77
2022/03/27 01:03:11;;;;;;;1.10;0.75;;;3.20;46.90;;;;;;5095478;28;20086;-77
2022/03/27 01:05:38;;;;;;;0.10;0.10;;;3.00;47.40;;;;;;5096134;28;20063;-77
2022/03/27 01:08:08;;;;;;;0.10;0.10;;;3.00;51.80;;;;;;5095937;28;20134;-77
2022/03/27 01:10:35;;;;;;;0.20;0.20;;;3.10;56.60;;;;;;5095448;28;20092;-78
2022/03/27 01:13:21;;;;;;;0.85;0.60;;;3.10;51.80;;;;;;5095311;28;20039;-76
2022/03/27 01:15:53;;;;;;;0.80;0.70;;;3.00;57.30;;;;;;5095875;28;20048;-77
2022/03/27 01:18:22;;;;;;;0.10;0.10;;;3.00;64.20;;;;;;5095177;28;20032;-77
2022/03/27 01:20:49;;;;;;;0.10;0.10;;;2.90;54.70;;;;;;5095405;28;20489;-77
2022/03/27 01:23:16;;;;;;;0.38;0.38;;;2.90;50.10;;;;;;5095358;28;20036;-77
2022/03/27 01:25:45;;;;;;;0.10;0.10;;;2.90;57.10;;;;;;5095841;28;20047;-77
2022/03/27 01:28:15;;;;;;;0.10;0.10;;;2.90;56.40;;;;;;5095521;28;20035;-77
2022/03/27 01:30:41;;;;;;;0.47;0.47;;;2.90;59.10;;;;;;5095556;28;20048;-77
2022/03/27 01:33:10;;;;;;;0.10;0.10;;;2.90;63.70;;;;;;5095451;28;20044;-77
2022/03/27 01:35:39;;;;;;;0.20;0.20;;;2.90;60.10;;;;;;5095619;28;20048;-77
2022/03/27 01:38:05;;;;;;;0.25;0.25;;;2.90;57.90;;;;;;5095984;28;20039;-77
2022/03/27 01:40:31;;;;;;;0.00;0.00;;;2.90;56.10;;;;;;5095211;28;20047;-77
2022/03/27 01:42:57;;;;;;;0.20;0.20;;;2.80;57.60;;;;;;5095347;28;20374;-77
2022/03/27 01:45:23;;;;;;;0.10;0.10;;;2.80;61.20;;;;;;5095042;28;20086;-77
2022/03/27 01:47:50;;;;;;;0.10;0.10;;;2.70;71.50;;;;;;5095577;28;20076;-77
2022/03/27 01:50:16;;;;;;;0.10;0.10;;;2.70;54.30;;;;;;5094722;28;20044;-77
2022/03/27 01:52:42;;;;;;;0.10;0.10;;;2.70;70.70;;;;;;5095217;28;20047;-77
2022/03/27 01:55:11;;;;;;;0.30;0.30;;;2.70;61.00;;;;;;5094617;28;20044;-76
2022/03/27 01:57:37;;;;;;;0.17;0.17;;;2.60;59.50;;;;;;5095390;28;20107;-77
2022/03/27 02:00:05;;;;;;;2.03;0.98;;;2.70;74.40;;;;;;5095022;28;20047;-77
2022/03/27 02:02:31;;;;;;;0.43;0.43;;;2.70;62.80;;;;;;5095078;28;20066;-77
2022/03/27 02:04:57;;;;;;;0.10;0.10;;;2.60;63.70;;;;;;5094751;28;20079;-77
2022/03/27 02:07:22;;;;;;;0.10;0.10;;;2.50;65.70;;;;;;5095093;28;20028;-77
2022/03/27 02:09:49;;;;;;;0.10;0.10;;;2.60;72.90;;;;;;5094993;28;20044;-77
2022/03/27 02:12:15;;;;;;;0.10;0.10;;;2.70;70.40;;;;;;5094773;28;20032;-77
2022/03/27 02:14:41;;;;;;;0.10;0.10;;;2.70;59.70;;;;;;5094366;28;20044;-77
2022/03/27 02:17:08;;;;;;;0.17;0.17;;;2.60;60.70;;;;;;5094654;28;20053;-77
2022/03/27 02:19:38;;;;;;;0.10;0.10;;;2.60;60.90;;;;;;5094609;28;20071;-77
2022/03/27 02:22:04;;;;;;;0.40;0.40;;;2.60;75.50;;;;;;5094433;28;20040;-76
2022/03/27 02:24:30;;;;;;;0.25;0.25;;;2.60;76.50;;;;;;5094859;28;20040;-77
2022/03/27 02:26:56;;;;;;;0.30;0.30;;;2.50;85.30;;;;;;5094508;28;20040;-76
2022/03/27 02:29:22;;;;;;;0.52;0.52;;;2.60;90.60;;;;;;5094508;28;20040;-77
2022/03/27 02:31:47;;;;;;;0.20;0.20;;;2.60;79.40;;;;;;5094378;28;20123;-77
2022/03/27 02:34:14;;;;;;;0.35;0.35;;;2.50;52.00;;;;;;5094485;28;20035;-77
2022/03/27 02:36:41;;;;;;;0.10;0.10;;;2.50;74.30;;;;;;5094421;28;20494;-76
2022/03/27 02:39:07;;;;;;;0.10;0.10;;;2.60;77.60;;;;;;5094452;28;20040;-77
2022/03/27 02:41:33;;;;;;;0.17;0.17;;;2.50;58.20;;;;;;5094255;28;20036;-77
2022/03/27 02:43:59;;;;;;;0.13;0.13;;;2.50;78.90;;;;;;5094175;28;20099;-77
2022/03/27 02:46:25;;;;;;;0.30;0.30;;;2.50;55.60;;;;;;5094693;28;20047;-77
2022/03/27 02:48:51;;;;;;;0.10;0.10;;;2.60;65.40;;;;;;5094594;28;20508;-77
2022/03/27 02:51:16;;;;;;;0.13;0.13;;;2.70;67.00;;;;;;5094303;28;20032;-77
2022/03/27 02:53:42;;;;;;;0.43;0.43;;;2.70;64.10;;;;;;5094014;28;20044;-77
2022/03/27 02:56:09;;;;;;;0.13;0.13;;;2.80;74.30;;;;;;5093998;28;20032;-77
2022/03/27 02:58:35;;;;;;;0.40;0.40;;;2.80;70.30;;;;;;5094261;28;20083;-77
2022/03/27 03:01:02;;;;;;;0.10;0.10;;;2.70;81.50;;;;;;5094255;28;20039;-77
2022/03/27 03:03:28;;;;;;;0.20;0.20;;;2.70;70.80;;;;;;5097264;28;20120;-77
2022/03/27 03:05:55;;;;;;;0.10;0.10;;;2.70;80.10;;;;;;5098179;28;20120;-78
2022/03/27 03:08:21;;;;;;;0.20;0.20;;;2.70;77.60;;;;;;5097848;28;20074;-78
2022/03/27 03:10:47;;;;;;;0.75;0.75;;;2.70;68.40;;;;;;5097470;28;20509;-77
2022/03/27 03:13:13;;;;;;;0.22;0.22;;;2.60;65.00;;;;;;5097668;28;20032;-78
2022/03/27 03:15:41;;;;;;;0.20;0.20;;;2.60;66.40;;;;;;5097658;28;20138;-77
2022/03/27 03:18:11;;;;;;;0.30;0.30;;;2.60;80.30;;;;;;5097689;28;20036;-77
2022/03/27 03:20:38;;;;;;;0.23;0.23;;;2.50;80.80;;;;;;5097389;28;20060;-77
2022/03/27 03:23:04;;;;;;;0.10;0.10;;;2.60;83.30;;;;;;5097693;28;20064;-77
2022/03/27 03:25:31;;;;;;;0.10;0.10;;;2.50;74.70;;;;;;5097765;28;20074;-77
2022/03/27 03:27:57;;;;;;;0.10;0.10;;;2.50;91.30;;;;;;5097893;28;20453;-77
2022/03/27 03:30:23;;;;;;;0.25;0.25;;;2.60;95.70;;;;;;5097271;28;20514;-77
2022/03/27 03:32:49;;;;;;;0.57;0.57;;;2.70;90.50;;;;;;5097523;28;20036;-77
2022/03/27 03:35:15;;;;;;;0.10;0.10;;;2.70;88.50;;;;;;5097098;28;20040;-77
2022/03/27 03:37:41;;;;;;;0.70;0.70;;;2.50;90.60;;;;;;5097528;28;20127;-76
2022/03/27 03:40:08;;;;;;;0.10;0.10;;;2.60;83.40;;;;;;5097204;28;20367;-77
2022/03/27 03:42:34;;;;;;;0.20;0.20;;;2.40;71.10;;;;;;5097299;28;20555;-77
2022/03/27 03:45:01;;;;;;;0.55;0.55;;;2.50;84.70;;;;;;5096990;28;20039;-76
2022/03/27 03:47:26;;;;;;;0.17;0.17;;;2.50;83.30;;;;;;5097285;28;20036;-77
2022/03/27 03:49:52;;;;;;;0.00;0.00;;;2.50;78.20;;;;;;5096932;28;20047;-77
2022/03/27 03:52:18;;;;;;;0.13;0.13;;;2.50;90.20;;;;;;5096854;28;20050;-76
2022/03/27 03:54:44;;;;;;;2.90;0.65;;;2.40;94.70;;;;;;5097111;28;20116;-77
2022/03/27 03:57:10;;;;;;;0.22;0.22;;;2.50;93.50;;;;;;5096388;28;20131;-76
2022/03/27 03:59:38;;;;;;;0.13;0.13;;;2.50;98.90;;;;;;5096968;28;20032;-77
2022/03/27 04:02:09;;;;;;;0.40;0.40;;;2.60;94.50;;;;;;5096988;28;20079;-77
2022/03/27 04:04:36;;;;;;;0.10;0.10;;;2.60;90.10;;;;;;5097237;28;20043;-77
2022/03/27 04:07:04;;;;;;;0.10;0.10;;;2.50;78.80;;;;;;5096737;28;20043;-77
2022/03/27 04:09:30;;;;;;;0.25;0.25;;;2.50;89.70;;;;;;5097093;28;20035;-76
2022/03/27 04:11:57;;;;;;;0.50;0.50;;;2.50;99.00;;;;;;5096552;28;20046;-77
2022/03/27 04:14:23;;;;;;;0.55;0.55;;;2.50;93.00;;;;;;5097077;28;20032;-77
2022/03/27 04:16:49;;;;;;;0.13;0.13;;;2.40;86.10;;;;;;5096823;28;20117;-77
2022/03/27 04:19:15;;;;;;;0.10;0.10;;;2.40;94.10;;;;;;5096698;28;20044;-77
2022/03/27 04:21:41;;;;;;;0.10;0.10;;;2.30;78.00;;;;;;5096770;28;20044;-77
2022/03/27 04:24:08;;;;;;;0.20;0.20;;;2.20;81.70;;;;;;5097382;28;20058;-77
2022/03/27 04:26:34;;;;;;;0.22;0.22;;;2.30;96.90;;;;;;5096630;28;20048;-77
2022/03/27 04:29:02;;;;;;;0.22;0.22;;;2.30;95.30;;;;;;5096414;28;20074;-77
2022/03/27 04:31:29;;;;;;;0.10;0.10;;;2.30;99.90;;;;;;5096639;28;20150;-77
2022/03/27 04:33:55;;;;;;;0.40;0.40;;;2.40;99.90;;;;;;5096618;28;20040;-77
2022/03/27 04:36:21;;;;;;;0.10;0.10;;;2.40;98.90;;;;;;5096192;28;20044;-77
2022/03/27 04:38:47;;;;;;;0.00;0.00;;;2.50;94.80;;;;;;5096230;28;20066;-78
2022/03/27 04:41:13;;;;;;;2.10;0.55;;;2.50;97.20;;;;;;5096245;28;20082;-77
2022/03/27 04:43:39;;;;;;;0.30;0.30;;;2.50;97.10;;;;;;5096176;28;20032;-77
2022/03/27 04:46:07;;;;;;;0.70;0.30;;;2.50;97.80;;;;;;5096523;28;20050;-77
2022/03/27 04:48:32;;;;;;;0.40;0.40;;;2.40;94.30;;;;;;5096247;28;20098;-77
2022/03/27 04:50:58;;;;;;;0.57;0.57;;;2.50;96.20;;;;;;5096299;28;20118;-77
2022/03/27 04:53:24;;;;;;;0.20;0.20;;;2.50;92.00;;;;;;5095966;28;20127;-77
2022/03/27 04:55:50;;;;;;;0.10;0.10;;;2.40;95.10;;;;;;5095934;28;20083;-77
2022/03/27 04:58:17;;;;;;;0.52;0.40;;;2.50;96.30;;;;;;5095895;28;20439;-77
2022/03/27 05:00:43;;;;;;;0.25;0.25;;;2.60;93.30;;;;;;5096011;28;20089;-77
2022/03/27 05:03:08;;;;;;;0.40;0.40;;;2.60;94.30;;;;;;5096333;28;20374;-77
2022/03/27 05:05:34;;;;;;;0.40;0.40;;;2.60;80.50;;;;;;5096247;28;20051;-76
2022/03/27 05:08:00;;;;;;;0.32;0.32;;;2.70;85.60;;;;;;5095712;28;20039;-77
2022/03/27 05:10:26;;;;;;;0.10;0.10;;;2.80;77.80;;;;;;5095773;28;20048;-77
2022/03/27 05:12:52;;;;;;;0.10;0.10;;;2.90;71.20;;;;;;5095900;28;20393;-77
2022/03/27 05:15:18;;;;;;;0.10;0.10;;;3.10;66.10;;;;;;5096064;28;20043;-77
2022/03/27 05:17:51;;;;;;;0.10;0.10;;;3.20;65.40;;;;;;5095468;28;20070;-77
2022/03/27 05:20:17;;;;;;;0.10;0.10;;;3.20;41.00;;;;;;5095699;28;20445;-77
2022/03/27 05:22:44;;;;;;;0.10;0.10;;;3.30;50.00;;;;;;5095432;28;20505;-78
2022/03/27 05:25:12;;;;;;;0.45;0.45;;;3.30;49.40;;;;;;5094486;28;20044;-77
2022/03/27 05:27:53;;;;;;;0.10;0.10;;;3.50;43.20;;;;;;5095674;28;20068;-76
2022/03/27 05:30:21;;;;;;;0.10;0.10;;;3.60;51.30;;;;;;5095827;28;20039;-77
2022/03/27 05:32:48;;;;;;;0.40;0.40;;;3.60;51.50;;;;;;5077045;28;20043;-77
2022/03/27 05:35:14;;;;;;;0.20;0.20;;;3.70;39.80;;;;;;5095142;28;20502;-77
2022/03/27 05:37:42;;;;;;;0.30;0.30;;;3.80;40.70;;;;;;5094784;28;20046;-77
2022/03/27 05:40:10;;;;;;;0.55;0.55;;;3.80;27.10;;;;;;5095251;28;20089;-76
2022/03/27 05:42:36;;;;;;;0.10;0.10;;;3.70;21.80;;;;;;5094761;28;20032;-77
2022/03/27 05:45:06;;;;;;;0.88;0.82;;;3.70;27.70;;;;;;5095056;28;20046;-77
2022/03/27 05:47:32;;;;;;;0.00;0.00;;;3.80;24.20;;;;;;5095028;28;20066;-77
2022/03/27 05:49:59;;;;;;;0.20;0.20;;;4.00;26.80;;;;;;5094696;28;20036;-77
2022/03/27 05:52:25;;;;;;;0.35;0.35;;;4.10;25.10;;;;;;5094610;28;20044;-77
2022/03/27 05:54:51;;;;;;;1.27;0.65;;;4.00;24.00;;;;;;5094734;28;20112;-77
2022/03/27 05:57:18;;;;;;;0.10;0.10;;;4.10;27.40;;;;;;5094803;28;20181;-77
2022/03/27 05:59:48;;;;;;;0.43;0.43;;;4.00;26.10;;;;;;5094861;28;20040;-77
2022/03/27 06:02:15;;;;;;;0.22;0.22;;;4.00;25.80;;;;;;5094826;28;20483;-77
2022/03/27 06:04:41;;;;;;;0.25;0.20;;;4.10;35.50;;;;;;5094778;28;20051;-77
2022/03/27 06:07:09;;;;;;;0.10;0.10;;;4.30;27.90;;;;;;5094886;28;20070;-76
2022/03/27 06:09:34;;;;;;;0.10;0.10;;;4.30;22.80;;;;;;5094694;28;20036;-77
2022/03/27 06:12:04;;;;;;;0.10;0.10;;;4.40;21.80;;;;;;5094541;28;20090;-77
2022/03/27 06:14:30;;;;;;;0.10;0.10;;;4.40;18.30;;;;;;5094420;28;20123;-77
2022/03/27 06:16:56;;;;;;;0.10;0.10;;;4.40;20.60;;;;;;5094122;28;20048;-77
2022/03/27 06:19:22;;;;;;;0.28;0.15;;;4.50;12.70;;;;;;5094883;28;20040;-77
2022/03/27 06:21:48;;;;;;;0.90;0.63;;;4.40;14.80;;;;;;5094648;28;20036;-77
2022/03/27 06:24:14;;;;;;;0.20;0.20;;;4.50;24.70;;;;;;5094576;28;20105;-77
2022/03/27 06:26:40;;;;;;;0.50;0.50;;;4.50;12.80;;;;;;5094529;28;20044;-77
2022/03/27 06:29:09;;;;;;;0.50;0.50;;;4.40;12.50;;;;;;5094232;28;20036;-77
2022/03/27 06:31:38;;;;;;;0.00;0.00;;;4.50;22.90;;;;;;5094117;28;20032;-77
2022/03/27 06:34:05;;;;;;;0.10;0.10;;;4.50;14.20;;;;;;5094496;28;20537;-77
2022/03/27 06:36:32;;;;;;;0.70;0.70;;;4.60;21.10;;;;;;5094593;28;20075;-77
2022/03/27 06:38:58;;;;;;;0.20;0.20;;;4.80;17.30;;;;;;5098795;28;20062;-77
2022/03/27 06:41:24;;;;;;;0.10;0.10;;;4.80;10.20;;;;;;5098683;28;20048;-78
2022/03/27 06:43:50;;;;;;;0.20;0.20;;;5.00;15.30;;;;;;5098466;28;20036;-77
2022/03/27 06:46:17;;;;;;;0.20;0.20;;;5.00;1.00;;;;;;5098490;28;20040;-77
2022/03/27 06:48:47;;;;;;;0.10;0.10;;;5.10;4.00;;;;;;5098357;28;20042;-77
2022/03/27 06:51:13;;;;;;;1.90;0.93;;;5.30;14.80;;;;;;5098226;28;20089;-77
2022/03/27 06:53:40;;;;;;;0.73;0.73;;;5.30;7.40;;;;;;5098263;28;20051;-77
2022/03/27 06:56:06;;;;;;;0.10;0.10;;;5.60;1.00;;;;;;5097906;28;20525;-77
2022/03/27 06:58:33;;;;;;;0.10;0.10;;;5.80;1.00;;;;;;5098183;28;20044;-77
2022/03/27 07:03:43;;;;;;;0.10;0.10;;;5.90;1.00;;;;;;5097882;28;20109;-77
2022/03/27 07:06:10;;;;;;;0.55;0.40;;;6.10;1.00;;;;;;5098249;28;20039;-77
2022/03/27 07:08:37;;;;;;;0.20;0.20;;;6.20;1.00;;;;;;5097737;28;20028;-77
2022/03/27 07:11:03;;;;;;;4.57;0.32;;;6.20;1.00;;;;;;5097763;28;20483;-76
2022/03/27 07:13:30;;;;;;;0.20;0.20;;;6.10;1.00;;;;;;5097898;28;20089;-77
2022/03/27 07:15:57;;;;;;;0.40;0.40;;;6.40;1.00;;;;;;5098208;28;20143;-77
2022/03/27 07:18:24;;;;;;;0.25;0.25;;;6.60;1.00;;;;;;5098118;28;20044;-78
2022/03/27 07:20:50;;;;;;;0.73;0.73;;;6.60;1.00;;;;;;5097789;28;20186;-77
2022/03/27 07:23:21;;;;;;;0.65;0.65;;;6.70;1.00;;;;;;5080644;28;20367;-77
2022/03/27 07:25:49;;;;;;;0.10;0.10;;;6.80;1.00;;;;;;5098165;28;20112;-77
2022/03/27 07:28:18;;;;;;;0.38;0.38;;;6.90;1.00;;;;;;5097545;28;20032;-77
2022/03/27 07:30:45;;;;;;;1.38;0.50;;;7.10;1.00;;;;;;5101624;28;20044;-78
2022/03/27 07:33:12;;;;;;;0.47;0.28;;;7.40;1.00;;;;;;5095955;28;20101;-77
2022/03/27 07:35:39;;;;;;;0.10;0.10;;;7.60;1.00;;;;;;5095684;28;20099;-77
2022/03/27 07:38:06;;;;;;;1.45;0.52;;;7.90;1.00;;;;;;5095577;28;20038;-77
2022/03/27 07:40:33;;;;;;;0.10;0.10;;;8.20;1.00;;;;;;5092992;28;20066;-77
2022/03/27 07:42:59;;;;;;;0.60;0.50;;;8.10;1.00;;;;;;5095635;28;20039;-77
2022/03/27 07:45:27;;;;;;;2.35;0.55;;;8.30;1.00;;;;;;5100486;28;20510;-76
2022/03/27 07:47:54;;;;;;;1.40;0.32;;;8.40;1.00;;;;;;5093706;28;20038;-77
2022/03/27 07:50:23;;;;;;;0.40;0.40;;;8.40;1.00;;;;;;5096974;28;20058;-76
2022/03/27 07:52:49;;;;;;;5.28;0.38;;;8.20;1.00;;;;;;5097178;28;20032;-77
2022/03/27 07:55:17;;;;;;;0.20;0.20;;;8.30;1.00;;;;;;5097423;28;20054;-76
2022/03/27 07:57:44;;;;;;;0.98;0.30;;;8.40;1.00;;;;;;5108376;28;20070;-77
2022/03/27 08:00:12;;;;;;;0.32;0.32;;;8.50;1.00;;;;;;5102897;28;20494;-77
2022/03/27 08:02:38;;;;;;;0.10;0.10;;;8.70;1.00;;;;;;5096941;28;20577;-77
2022/03/27 08:05:05;;;;;;;0.45;0.45;;;8.70;1.00;;;;;;5098052;28;20047;-77
2022/03/27 08:07:32;;;;;;;0.10;0.10;;;8.70;1.00;;;;;;5097165;28;20068;-75
2022/03/27 08:09:59;;;;;;;0.25;0.25;;;8.70;1.00;;;;;;5097083;28;20097;-76
2022/03/27 08:12:26;;;;;;;0.10;0.10;;;8.70;1.00;;;;;;5097038;28;20036;-76
2022/03/27 08:14:52;;;;;;;0.30;0.30;;;9.10;1.00;;;;;;5091428;28;20035;-74
2022/03/27 08:17:17;;;;;;;0.43;0.43;;;9.20;1.00;;;;;;5094189;28;20040;-77
2022/03/27 08:19:45;;;;;;;0.38;0.38;;;9.40;1.00;;;;;;5096104;28;20040;-77
2022/03/27 08:22:11;;;;;;;0.20;0.20;;;9.30;1.00;;;;;;5096565;28;20036;-77
2022/03/27 08:24:38;;;;;;;0.20;0.20;;;10.00;1.00;;;;;;5077630;28;20393;-77
2022/03/27 08:27:04;;;;;;;0.25;0.25;;;10.20;1.00;;;;;;5094231;28;20127;-76
2022/03/27 08:29:32;;;;;;;0.60;0.30;;;10.50;1.00;;;;;;5096897;28;20482;-77
2022/03/27 08:32:01;;;;;;;0.68;0.43;;;10.50;1.00;;;;;;5099789;28;20028;-77
2022/03/27 08:34:29;;;;;;;1.30;1.20;;;10.40;1.00;;;;;;5116347;28;20043;-77
2022/03/27 08:36:56;;;;;;;0.10;0.10;;;10.90;1.00;;;;;;5103648;28;20044;-77
2022/03/27 08:39:22;;;;;;;0.20;0.20;;;11.10;1.00;;;;;;5095741;28;20053;-76
2022/03/27 08:41:51;;;;;;;0.20;0.20;;;11.10;1.00;;;;;;5108477;28;20027;-76
2022/03/27 08:44:19;;;;;;;0.20;0.20;;;11.30;1.00;;;;;;5114657;28;20039;-76
2022/03/27 08:46:46;;;;;;;0.20;0.20;;;11.60;1.00;;;;;;5115735;28;20071;-77
2022/03/27 08:49:27;;;;;;;0.65;0.65;;;12.00;1.00;;;;;;5113900;28;20043;-76
2022/03/27 08:52:02;;;;;;;1.20;0.57;;;11.90;1.00;;;;;;5103153;28;20036;-77
2022/03/27 08:55:05;;;;;;;0.30;0.30;;;12.30;1.00;;;;;;5096074;28;20036;-77
2022/03/27 08:57:52;;;;;;;0.75;0.75;;;12.40;1.00;;;;;;5095497;28;20032;-77
2022/03/27 09:00:23;;;;;;;0.50;0.50;;;12.40;1.00;;;;;;5094348;28;20042;-77
2022/03/27 09:02:50;;;;;;;0.25;0.22;;;12.50;1.00;;;;;;5095305;28;20526;-77
2022/03/27 09:05:17;;;;;;;0.57;0.57;;;12.70;1.00;;;;;;5099114;28;20096;-77
2022/03/27 09:07:42;;;;;;;0.88;0.25;;;12.90;1.00;;;;;;5115891;28;20028;-78
2022/03/27 09:10:10;;;;;;;1.55;0.88;;;12.70;1.00;;;;;;5115161;28;20035;-77
2022/03/27 09:12:37;;;;;;;0.30;0.30;;;12.90;1.00;;;;;;5101722;28;20066;-77
2022/03/27 09:15:08;;;;;;;0.22;0.22;;;12.80;1.00;;;;;;5098761;28;20079;-77
2022/03/27 09:18:00;;;;;;;0.55;0.55;;;12.70;1.00;;;;;;5115475;28;20048;-77
2022/03/27 09:20:40;;;;;;;0.93;0.93;;;13.00;1.00;;;;;;5115399;28;20071;-77
2022/03/27 09:23:27;;;;;;;0.23;0.23;;;13.20;99.90;;;;;;5095329;28;20032;-77
2022/03/27 09:25:59;;;;;;;0.70;0.70;;;13.30;99.90;;;;;;5074779;28;20036;-78
2022/03/27 09:28:35;;;;;;;0.20;0.20;;;13.40;99.90;;;;;;5085725;28;20044;-77
2022/03/27 09:31:23;;;;;;;0.45;0.45;;;13.60;99.90;;;;;;5099804;28;20058;-77
2022/03/27 09:33:57;;;;;;;0.40;0.40;;;13.70;99.90;;;;;;5095125;28;20095;-77
2022/03/27 09:36:41;;;;;;;0.88;0.82;;;13.80;99.90;;;;;;5094318;28;20085;-77
2022/03/27 09:39:13;;;;;;;0.40;0.40;;;13.90;99.90;;;;;;5094973;28;20071;-77
2022/03/27 09:41:47;;;;;;;0.28;0.25;;;13.90;99.90;;;;;;5094291;28;20091;-77
2022/03/27 09:44:17;;;;;;;0.30;0.30;;;13.90;99.90;;;;;;5098587;28;20082;-77
2022/03/27 09:46:57;;;;;;;0.70;0.70;;;13.90;99.90;;;;;;5094652;28;20054;-76
2022/03/27 09:49:27;;;;;;;0.20;0.20;;;14.00;99.90;;;;;;5094411;28;20036;-77
2022/03/27 09:51:56;;;;;;;0.77;0.77;;;14.00;99.90;;;;;;5094798;28;20038;-77
2022/03/27 09:54:23;;;;;;;0.10;0.10;;;14.20;99.90;;;;;;5094613;28;20536;-77
2022/03/27 09:56:49;;;;;;;0.45;0.45;;;14.20;99.90;;;;;;5094690;28;20044;-77
2022/03/27 09:59:33;;;;;;;0.20;0.20;;;14.20;99.90;;;;;;5095022;28;20032;-77
2022/03/27 10:02:28;;;;;;;0.13;0.13;;;14.10;99.90;;;;;;5094784;28;20043;-77
2022/03/27 10:05:09;;;;;;;1.55;1.45;;;14.10;99.90;;;;;;5114183;28;20080;-77
2022/03/27 10:07:48;;;;;;;0.43;0.43;;;14.30;99.90;;;;;;5115118;28;20046;-77
2022/03/27 10:10:16;;;;;;;0.73;0.73;;;14.50;99.90;;;;;;5114730;28;20081;-77
2022/03/27 10:12:51;;;;;;;0.20;0.20;;;14.30;99.90;;;;;;5109488;28;20505;-77
2022/03/27 10:15:20;;;;;;;0.73;0.55;;;14.40;99.90;;;;;;5113930;28;20058;-77
2022/03/27 10:17:51;;;;;;;1.38;1.05;;;14.60;99.90;;;;;;5114185;28;20039;-77
2022/03/27 10:20:21;;;;;;;0.30;0.30;;;14.60;99.90;;;;;;5115347;28;20042;-76
2022/03/27 10:22:56;;;;;;;0.20;0.20;;;14.70;99.90;;;;;;5114849;28;20118;-75
2022/03/27 10:25:26;;;;;;;0.22;0.22;;;14.70;99.90;;;;;;5114735;28;20058;-75
2022/03/27 10:27:54;;;;;;;0.30;0.30;;;14.80;99.90;;;;;;5096796;28;20038;-75
2022/03/27 10:30:19;;;;;;;0.28;0.28;;;15.00;99.90;;;;;;5094479;28;20036;-76
2022/03/27 10:32:46;;;;;;;1.25;0.65;;;15.10;99.90;;;;;;5094215;28;20032;-75
2022/03/27 10:35:50;;;;;;;1.45;0.95;;;15.20;99.90;;;;;;5094678;28;20048;-76
2022/03/27 10:38:45;;;;;;;3.50;0.70;;;15.20;99.90;;;;;;5066048;28;20127;-77
2022/03/27 10:41:37;;;;;;;0.30;0.30;;;15.10;99.90;;;;;;5094348;28;20044;-77
2022/03/27 10:44:24;;;;;;;0.38;0.38;;;15.30;99.90;;;;;;5093785;28;20044;-77
2022/03/27 10:47:22;;;;;;;0.47;0.47;;;15.40;99.90;;;;;;5114513;28;20065;-77
2022/03/27 10:50:08;;;;;;;1.75;0.85;;;15.40;99.90;;;;;;5097971;28;20035;-77
2022/03/27 10:52:43;;;;;;;0.93;0.93;;;15.40;99.90;;;;;;5093656;28;20044;-77
2022/03/27 10:55:14;;;;;;;2.47;1.40;;;15.30;99.90;;;;;;5086490;28;20036;-79
2022/03/27 10:57:41;;;;;;;;;;;15.30;99.90;;;;;;5084201;28;20052;-77
2022/03/27 11:00:10;;;;;;;1.55;1.02;;;15.30;99.90;;;;;;5093230;28;19908;-77
2022/03/27 11:02:50;;;;;;;0.50;0.50;;;15.40;99.90;;;;;;5100795;28;20127;-75
2022/03/27 11:05:31;;;;;;;1.75;1.38;;;15.30;99.90;;;;;;5088931;28;20114;-73
2022/03/27 11:08:18;;;;;;;;;;;15.30;99.90;;;;;;5093189;28;20039;-75
2022/03/27 11:10:50;;;;;;;0.70;0.70;;;15.40;99.90;;;;;;5092951;28;19912;-74
2022/03/27 11:13:28;;;;;;;0.90;0.88;;;15.30;99.90;;;;;;5093537;28;20082;-75
2022/03/27 11:16:07;;;;;;;0.40;0.40;;;15.40;99.90;;;;;;5094418;28;20055;-75
2022/03/27 11:18:46;;;;;;;0.65;0.63;;;15.50;99.90;;;;;;5093832;28;20051;-74
2022/03/27 11:21:27;;;;;;;0.63;0.63;;;15.60;99.90;;;;;;5074500;28;20371;-74
2022/03/27 11:24:02;;;;;;;;;;;15.70;99.90;;;;;;5110489;28;20040;-75
2022/03/27 11:26:31;;;;;;;0.32;0.32;;;16.00;99.90;;;;;;5110219;28;19963;-74
2022/03/27 11:29:22;;;;;;;2.15;0.95;;;16.00;99.90;;;;;;5097881;28;20038;-74
2022/03/27 11:32:07;;;;;;;0.88;0.75;;;15.90;99.90;;;;;;5102663;28;20031;-74
2022/03/27 11:34:34;;;;;;;0.30;0.30;;;15.80;99.90;;;;;;5104315;28;20050;-75
2022/03/27 11:37:25;;;;;;;0.57;0.57;;;15.80;99.90;;;;;;5106418;28;20114;-76
2022/03/27 11:39:53;;;;;;;0.10;0.10;;;15.90;99.90;;;;;;5101195;28;20039;-76
2022/03/27 11:42:45;;;;;;;2.40;1.30;;;15.90;99.90;;;;;;5105831;28;20050;-74
2022/03/27 11:45:18;;;;;;;0.55;0.55;;;16.00;99.90;;;;;;5099618;28;20062;-74
2022/03/27 11:47:52;;;;;;;0.80;0.80;;;16.00;99.90;;;;;;5094246;28;20064;-76
2022/03/27 11:50:28;;;;;;;0.32;0.32;;;15.80;99.90;;;;;;5077055;28;20121;-77
2022/03/27 11:52:54;;;;;;;0.30;0.30;;;16.00;99.90;;;;;;5096781;28;20038;-74
2022/03/27 11:55:21;;;;;;;0.43;0.43;;;16.00;99.90;;;;;;5096123;28;20123;-75
2022/03/27 11:57:53;;;;;;;2.63;0.63;;;16.00;99.90;;;;;;5101111;28;20044;-75
2022/03/27 12:00:39;;;;;;;1.95;0.70;;;16.10;99.90;;;;;;5098040;28;20120;-72
2022/03/27 12:03:20;;;;;;;0.38;0.38;;;16.20;99.90;;;;;;5093523;28;20178;-74
2022/03/27 12:05:48;;;;;;;0.35;0.35;;;16.10;99.90;;;;;;5093623;28;20048;-75
2022/03/27 12:08:17;;;;;;;0.50;0.50;;;16.10;99.90;;;;;;5095838;28;20036;-74
2022/03/27 12:10:56;;;;;;;0.20;0.20;;;15.90;99.90;;;;;;5096750;28;20043;-75
2022/03/27 12:13:22;;;;;;;0.10;0.10;;;15.80;99.90;;;;;;5095987;28;20040;-74
2022/03/27 12:15:50;;;;;;;1.15;1.05;;;16.00;99.90;;;;;;5098814;28;20502;-75
2022/03/27 12:18:30;;;;;;;0.10;0.10;;;16.00;99.90;;;;;;5109327;28;20036;-76
2022/03/27 12:20:57;;;;;;;0.47;0.47;;;16.00;99.90;;;;;;5105818;28;20134;-75
2022/03/27 12:23:26;;;;;;;0.50;0.50;;;16.00;99.90;;;;;;5095491;28;20803;-75
2022/03/27 12:29:50;;;;;;;0.20;0.20;;;16.00;99.90;;;;;;5100476;28;20055;-74
2022/03/27 12:32:28;;;;;;;0.40;0.40;;;15.90;99.90;;;;;;5093529;28;20032;-75
2022/03/27 12:34:56;;;;;;;1.73;1.05;;;16.00;99.90;;;;;;5097498;28;20055;-74
2022/03/27 12:37:27;;;;;;;1.83;0.40;;;16.00;99.90;;;;;;5097901;28;20127;-74
2022/03/27 12:39:52;;;;;;;1.13;1.02;;;16.10;99.90;;;;;;5097651;28;20068;-74
2022/03/27 12:42:36;;;;;;;1.25;1.15;;;16.00;99.90;;;;;;5095999;28;20067;-74
2022/03/27 12:45:23;;;;;;;0.35;0.35;;;16.00;99.90;;;;;;5114899;28;20050;-75
2022/03/27 12:47:51;;;;;;;1.00;0.93;;;16.00;99.90;;;;;;5116305;28;20486;-74
2022/03/27 12:50:29;;;;;;;11.55;1.05;;;16.00;99.90;;;;;;5116346;28;20075;-75
2022/03/27 12:53:01;;;;;;;0.32;0.32;;;16.10;99.90;;;;;;5114811;28;20043;-73
2022/03/27 12:55:44;;;;;;;0.47;0.47;;;16.00;99.90;;;;;;5078831;28;20123;-75
2022/03/27 12:58:16;;;;;;;0.25;0.25;;;16.30;99.90;;;;;;5109664;28;20035;-76
2022/03/27 13:00:43;;;;;;;0.25;0.25;;;16.30;99.90;;;;;;5100700;28;20083;-75
2022/03/27 13:03:16;;;;;;;0.30;0.30;;;16.40;99.90;;;;;;5099364;28;20062;-75
2022/03/27 13:05:44;;;;;;;0.20;0.20;;;16.20;99.90;;;;;;5095131;28;20075;-75
2022/03/27 13:08:10;;;;;;;0.15;0.15;;;16.20;99.90;;;;;;5113907;28;20114;-76
2022/03/27 13:10:40;;;;;;;0.50;0.50;;;16.20;99.90;;;;;;5094456;28;20039;-76
2022/03/27 13:13:13;;;;;;;0.70;0.70;;;16.30;99.90;;;;;;5094506;28;20062;-75
2022/03/27 13:15:52;;;;;;;2.40;1.85;;;16.30;99.90;;;;;;5094910;28;20083;-75